Sharm el Sheikh, Egypt
Current Conditions -  °F | °C
As of 11:00 AM on Thursday 23 Oct 2014 (Local Time) from HESH Reporting Station
Clear Clear  
Wind Chill: 29°   Ceiling: Unl
Heat Index: 30°   Visibility: 6mi
Dew Point: 19°   Wind: 17mph
Humidity: 55%   Direction: 60°ENE
Pressure: 29.97"   Gusts: NA
Location:  27.98°N, 34.39°E
Report Text: HESH 230900Z 06015KT CAVOK 29/19 Q1015 NOSIG
Loading
Personal Weather Stations






























Interactive Weather Map
Tropical Storm Tracking
New forecast layout! Learn more

10-Day Weather Forecast

Advertisements
Track Severe Weather on mobile